Terminal Aerodrome Forecast
Issued by NWS

Home | Current Version | Previous Version | Text Only | Print | Product List | Glossary On
Versions: 1 2 3 4 5 6 7 8 9 10 11 12 13 14 15 16 17 18
909
FTUS45 KABQ 281840 AAA
TAFLVS
TAF AMD
KLVS 281840Z 2819/2918 22012G21KT P6SM SCT080 SCT140
     FM282000 22011G22KT P6SM BKN080
     FM282130 17012G20KT P6SM VCTS OVC060CB
     FM290200 18007KT P6SM BKN080=

USA.gov is the U.S. government's official web portal to all federal, state and local government web resources and services.